地図

経路データ

SID SEASON NUMBER BASIN SUBBASIN NAME ISO_TIME NATURE LAT LON WMO_WIND WMO_PRES WMO_AGENCY TRACK_TYPE DIST2LAND LANDFALL IFLAG USA_AGENCY USA_ATCF_ID USA_LAT USA_LON USA_RECORD USA_STATUS USA_WIND USA_PRES USA_SSHS USA_R34_NE USA_R34_SE USA_R34_SW USA_R34_NW USA_R50_NE USA_R50_SE USA_R50_SW USA_R50_NW USA_R64_NE USA_R64_SE USA_R64_SW USA_R64_NW USA_POCI USA_ROCI USA_RMW USA_EYE TOKYO_LAT TOKYO_LON TOKYO_GRADE TOKYO_WIND TOKYO_PRES TOKYO_R50_DIR TOKYO_R50_LONG TOKYO_R50_SHORT TOKYO_R30_DIR TOKYO_R30_LONG TOKYO_R30_SHORT TOKYO_LAND CMA_LAT CMA_LON CMA_CAT CMA_WIND CMA_PRES HKO_LAT HKO_LON HKO_CAT HKO_WIND HKO_PRES NEWDELHI_LAT NEWDELHI_LON NEWDELHI_GRADE NEWDELHI_WIND NEWDELHI_PRES NEWDELHI_CI NEWDELHI_DP NEWDELHI_POCI REUNION_LAT REUNION_LON REUNION_TYPE REUNION_WIND REUNION_PRES REUNION_TNUM REUNION_CI REUNION_RMW REUNION_R34_NE REUNION_R34_SE REUNION_R34_SW REUNION_R34_NW REUNION_R50_NE REUNION_R50_SE REUNION_R50_SW REUNION_R50_NW REUNION_R64_NE REUNION_R64_SE REUNION_R64_SW REUNION_R64_NW BOM_LAT BOM_LON BOM_TYPE BOM_WIND BOM_PRES BOM_TNUM BOM_CI BOM_RMW BOM_R34_NE BOM_R34_SE BOM_R34_SW BOM_R34_NW BOM_R50_NE BOM_R50_SE BOM_R50_SW BOM_R50_NW BOM_R64_NE BOM_R64_SE BOM_R64_SW BOM_R64_NW BOM_ROCI BOM_POCI BOM_EYE BOM_POS_METHOD BOM_PRES_METHOD NADI_LAT NADI_LON NADI_CAT NADI_WIND NADI_PRES WELLINGTON_LAT WELLINGTON_LON WELLINGTON_WIND WELLINGTON_PRES DS824_LAT DS824_LON DS824_STAGE DS824_WIND DS824_PRES TD9636_LAT TD9636_LON TD9636_STAGE TD9636_WIND TD9636_PRES TD9635_LAT TD9635_LON TD9635_WIND TD9635_PRES TD9635_ROCI NEUMANN_LAT NEUMANN_LON NEUMANN_CLASS NEUMANN_WIND NEUMANN_PRES MLC_LAT MLC_LON MLC_CLASS MLC_WIND MLC_PRES USA_GUST BOM_GUST BOM_GUST_PER REUNION_GUST REUNION_GUST_PER USA_SEAHGT USA_SEARAD_NE USA_SEARAD_SE USA_SEARAD_SW USA_SEARAD_NW STORM_SPEED STORM_DIR
1997124N03171 1997 28 WP MM KELLY 1997-05-04 06:00:00 NR 2.70000 171.400 main 1712 1712 O_____________ jtwc_wp WP041997 2.70000 171.400 15 -1 5 326
1997124N03171 1997 28 WP MM KELLY 1997-05-04 09:00:00 NR 2.92500 171.248 main 1713 1713 P_____________ WP041997 2.92500 171.248 15 -1 6 329
1997124N03171 1997 28 WP MM KELLY 1997-05-04 12:00:00 NR 3.20000 171.100 main 1731 1731 O_____________ jtwc_wp WP041997 3.20000 171.100 15 -1 7 335
1997124N03171 1997 28 WP MM KELLY 1997-05-04 15:00:00 NR 3.56250 170.957 main 1757 1750 P_____________ WP041997 3.56250 170.957 15 -1 9 340
1997124N03171 1997 28 WP MM KELLY 1997-05-04 18:00:00 NR 4.00000 170.800 main 1778 1778 O_____________ jtwc_wp WP041997 4.00000 170.800 15 -1 10 339
1997124N03171 1997 28 WP MM KELLY 1997-05-04 21:00:00 NR 4.49250 170.607 main 1809 1809 P_____________ WP041997 4.49250 170.607 15 -1 11 338
1997124N03171 1997 28 WP MM KELLY 1997-05-05 00:00:00 NR 5.00000 170.400 main 1841 1841 O_____________ jtwc_wp WP041997 5.00000 170.400 15 -1 11 337
1997124N03171 1997 28 WP MM KELLY 1997-05-05 03:00:00 NR 5.48000 170.185 main 1874 1874 P_____________ WP041997 5.48000 170.185 15 -1 10 336
1997124N03171 1997 28 WP MM KELLY 1997-05-05 06:00:00 NR 5.90000 170.000 main 1900 1900 O_____________ jtwc_wp WP041997 5.90000 170.000 15 -1 8 340
1997124N03171 1997 28 WP MM KELLY 1997-05-05 09:00:00 NR 6.24497 169.900 main 1922 1922 P_____________ WP041997 6.24497 169.900 15 -1 6 342
1997124N03171 1997 28 WP MM KELLY 1997-05-05 12:00:00 NR 6.50000 169.800 main 1945 1945 O_____________ jtwc_wp WP041997 6.50000 169.800 15 -1 5 328
1997124N03171 1997 28 WP MM KELLY 1997-05-05 15:00:00 NR 6.68749 169.622 main 1953 1948 P_____________ WP041997 6.68749 169.622 15 -1 5 307
1997124N03171 1997 28 WP MM KELLY 1997-05-05 18:00:00 NR 6.80000 169.400 main 1952 1941 O_____________ jtwc_wp WP041997 6.80000 169.400 15 -1 5 288
1997124N03171 1997 28 WP MM KELLY 1997-05-05 21:00:00 NR 6.83499 169.165 main 1941 1935 P_____________ WP041997 6.83499 169.165 15 -1 5 281
1997124N03171 1997 28 WP MM KELLY 1997-05-06 00:00:00 NR 6.90000 168.900 main 1935 1930 O_____________ jtwc_wp WP041997 6.90000 168.900 15 -1 6 296
1997124N03171 1997 28 WP MM KELLY 1997-05-06 03:00:00 NR 7.10501 168.600 main 1940 1935 P_____________ WP041997 7.10501 168.600 17 -1 8 310
1997124N03171 1997 28 WP MM KELLY 1997-05-06 06:00:00 NR 7.40000 168.300 main 1956 1956 O_____________ jtwc_wp WP041997 7.40000 168.300 20 -1 8 318
1997124N03171 1997 28 WP MM KELLY 1997-05-06 09:00:00 NR 7.72749 168.035 main 1972 1972 P_____________ WP041997 7.72749 168.035 22 -1 9 325
1997124N03171 1997 28 WP MM KELLY 1997-05-06 12:00:00 NR 8.10000 167.800 main 2005 2005 O_____________ jtwc_wp WP041997 8.10000 167.800 25 -1 9 330
1997124N03171 1997 28 WP MM KELLY 1997-05-06 15:00:00 NR 8.50749 167.578 main 2038 2038 P_____________ WP041997 8.50749 167.578 25 -1 11 356
1997124N03171 1997 28 WP MM KELLY 1997-05-06 18:00:00 TS 9.20000 167.733 1004 tokyo main 2115 2115 OOO___________ jtwc_wp WP041997 8.90000 167.400 25 -1 9.80000 168.400 2 1004 0 0 0 9.80000 168.400 0 19 1004 11 8
1997124N03171 1997 28 WP MM KELLY 1997-05-06 21:00:00 TS 9.56001 167.734 main 2157 2157 PPP___________ WP041997 9.22998 167.277 25 -1 9.89004 168.190 2 1004 0 0 9.89004 168.190 0 19 1004 6 349
1997124N03171 1997 28 WP MM KELLY 1997-05-07 00:00:00 TS 9.78182 167.618 1004 tokyo main 2174 2174 OOOO__________ jtwc_wp WP041997 9.50000 167.200 25 -1 10.0000 168.000 2 1004 0 0 0 10.0000 168.000 0 19 1004 9.60000 167.000 TD 25 1004 5 332
1997124N03171 1997 28 WP MM KELLY 1997-05-07 03:00:00 TS 9.97963 167.507 main 2191 2191 PPPP__________ WP041997 9.71499 167.142 25 -1 10.1425 167.842 2 1004 0 0 10.1425 167.842 0 19 1004 9.85751 166.893 TD 25 1004 5 326
1997124N03171 1997 28 WP MM KELLY 1997-05-07 06:00:00 TS 10.1533 167.360 1004 tokyo main 2208 2204 OOOO__________ jtwc_wp WP041997 9.90000 167.100 25 -1 10.3000 167.700 2 1004 0 0 0 10.3000 167.700 0 19 1004 10.1000 166.800 TD 25 1004 5 321
1997124N03171 1997 28 WP MM KELLY 1997-05-07 09:00:00 TS 10.3306 167.217 main 2211 2211 PPPP__________ WP041997 10.1075 167.050 27 -1 10.4500 167.542 2 1004 0 0 10.4500 167.542 0 19 1004 10.3150 166.735 TD 27 1003 4 326
1997124N03171 1997 28 WP MM KELLY 1997-05-07 12:00:00 TS 10.5000 167.125 1004 tokyo main 2229 2229 OOOO__________ jtwc_wp WP041997 10.3000 167.000 30 -1 10.6000 167.400 2 1004 0 0 0 10.6000 167.400 0 19 1004 10.5000 166.700 TD 30 1002 4 332
1997124N03171 1997 28 WP MM KELLY 1997-05-07 15:00:00 TS 10.6537 167.046 main 2247 2247 PPPP__________ WP041997 10.4575 166.943 30 -1 10.7500 167.277 2 1003 0 0 10.7500 167.277 0 21 1003 10.6575 166.685 TD 30 1001 3 338
1997124N03171 1997 28 WP MM KELLY 1997-05-07 18:00:00 TS 10.8000 167.000 1002 tokyo main 2257 2257 OOOO__________ jtwc_wp WP041997 10.6000 166.900 30 -1 10.9000 167.200 2 1002 0 0 0 10.9000 167.200 1 23 1002 10.8000 166.700 TD 30 1000 3 353
1997124N03171 1997 28 WP MM KELLY 1997-05-07 21:00:00 TS 10.9500 166.999 main 2277 2267 PPPP__________ WP041997 10.7575 166.885 32 -1 11.0500 167.185 2 1001 0 0 11.0500 167.185 1 26 1001 10.9425 166.743 TD 32 998 3 0
1997124N03171 1997 28 WP MM KELLY 1997-05-08 00:00:00 TS 11.1000 167.025 1000 tokyo main 2288 2288 OOOO__________ jtwc_wp WP041997 10.9000 166.900 35 0 11.2000 167.200 2 1000 0 0 0 11.2000 167.200 1 29 1000 11.1000 166.800 TS 35 996 3 5
1997124N03171 1997 28 WP MM KELLY 1997-05-08 03:00:00 TS 11.2500 167.048 main 2307 2307 PPPP__________ WP041997 11.0075 166.943 37 0 11.3500 167.200 2 999 0 0 11.3500 167.200 1 29 999 11.2925 166.850 TS 35 996 3 9
1997124N03171 1997 28 WP MM KELLY 1997-05-08 06:00:00 TS 11.4000 167.075 35 998 tokyo main 2322 2322 OOOO__________ jtwc_wp WP041997 11.1000 167.000 40 0 11.5000 167.200 3 35 998 0 9 70 70 0 11.5000 167.200 1 29 998 11.5000 166.900 TS 35 996 3 10
1997124N03171 1997 28 WP MM KELLY 1997-05-08 09:00:00 TS 11.5519 167.104 main 2340 2340 PPPP__________ WP041997 11.2000 167.058 42 0 11.6500 167.200 3 35 998 0 9 70 70 11.6500 167.200 1 29 998 11.7075 166.957 TS 35 996 3 9
1997124N03171 1997 28 WP MM KELLY 1997-05-08 12:00:00 TS 11.7000 167.125 35 998 tokyo main 2350 2350 OOOO__________ jtwc_wp WP041997 11.3000 167.100 45 0 11.8000 167.200 3 35 998 0 9 70 70 0 11.8000 167.200 1 29 998 11.9000 167.000 TS 35 996 3 6
1997124N03171 1997 28 WP MM KELLY 1997-05-08 15:00:00 TS 11.8356 167.134 main 2359 2359 PPPP__________ WP041997 11.3850 167.122 45 0 11.9500 167.200 3 35 998 0 9 70 70 11.9500 167.200 1 29 998 12.0575 167.015 TS 35 996 3 0
1997124N03171 1997 28 WP MM KELLY 1997-05-08 18:00:00 TS 11.9750 167.125 35 998 tokyo main 2377 2377 OOOO__________ jtwc_wp WP041997 11.5000 167.100 45 0 12.1000 167.200 3 35 998 0 9 70 70 0 12.1000 167.200 1 29 998 12.2000 167.000 TS 35 996 3 353
1997124N03171 1997 28 WP MM KELLY 1997-05-08 21:00:00 TS 12.1319 167.104 main 2386 2386 PPPP__________ WP041997 11.6775 167.037 42 0 12.2500 167.207 3 35 998 0 9 70 70 12.2500 167.207 1 29 998 12.3500 166.965 TS 32 998 3 349
1997124N03171 1997 28 WP MM KELLY 1997-05-09 00:00:00 TS 12.3000 167.050 35 998 tokyo main 2405 2399 OOOO__________ jtwc_wp WP041997 11.9000 166.900 40 0 12.4000 167.200 3 35 998 0 9 70 70 0 12.4000 167.200 1 29 998 12.5000 166.900 TD 30 1000 4 338
1997124N03171 1997 28 WP MM KELLY 1997-05-09 03:00:00 TS 12.4675 166.962 main 2417 2410 PPPP__________ WP041997 12.1425 166.680 37 0 12.5425 167.172 3 35 998 0 9 70 70 12.5425 167.172 1 29 998 12.6425 166.822 TD 30 1000 4 328
1997124N03171 1997 28 WP MM KELLY 1997-05-09 06:00:00 TS 12.6500 166.825 35 998 tokyo main 2419 2411 OOOO__________ jtwc_wp WP041997 12.4000 166.400 35 0 12.7000 167.100 3 35 998 0 9 70 70 0 12.7000 167.100 1 29 998 12.8000 166.700 TD 30 1000 5 323
1997124N03171 1997 28 WP MM KELLY 1997-05-09 09:00:00 TS 12.8549 166.662 main 2429 2422 PPPP__________ WP041997 12.6575 166.115 35 0 12.8849 166.995 3 35 998 0 9 70 70 12.8849 166.995 1 29 998 12.9924 166.545 TD 30 1000 6 318
1997124N03171 1997 28 WP MM KELLY 1997-05-09 12:00:00 TS 13.0750 166.425 35 998 tokyo main 2426 2419 OOOO__________ jtwc_wp WP041997 12.9000 165.800 35 0 13.1000 166.800 3 35 998 0 9 70 70 0 13.1000 166.800 1 29 998 13.2000 166.300 TD 30 1000 7 310
1997124N03171 1997 28 WP MM KELLY 1997-05-09 15:00:00 TS 13.3037 166.107 main 2423 2414 PPPP__________ WP041997 13.1074 165.472 32 -1 13.3499 166.510 3 35 998 0 9 70 70 13.3499 166.510 1 29 998 13.4075 165.938 TD 30 1000 8 303
1997124N03171 1997 28 WP MM KELLY 1997-05-09 18:00:00 TS 13.5250 165.700 35 998 tokyo main 2414 2405 OOOO__________ jtwc_wp WP041997 13.3000 165.100 30 -1 13.6000 166.100 3 35 998 0 9 70 70 0 13.6000 166.100 1 29 998 13.6000 165.500 TD 30 1000 9 297
1997124N03171 1997 28 WP MM KELLY 1997-05-09 21:00:00 TS 13.7273 165.245 main 2398 2383 PPPP__________ WP041997 13.4999 164.687 30 -1 13.8223 165.610 3 35 998 0 9 70 70 13.8223 165.610 1 29 998 13.7649 165.072 TD 27 1001 10 291
1997124N03171 1997 28 WP MM KELLY 1997-05-10 00:00:00 TS 13.9000 164.707 35 998 tokyo main 2383 2353 OOOO__________ jtwc_wp WP041997 13.7000 164.200 30 -1 14.0000 165.000 3 35 998 0 9 70 70 0 14.0000 165.000 1 29 998 13.9000 164.600 TD 25 1002 12 285
1997124N03171 1997 28 WP MM KELLY 1997-05-10 03:00:00 TS 14.0298 164.051 main 2353 2320 PPPP__________ WP041997 13.8999 163.630 30 -1 14.1002 164.257 3 35 998 0 9 70 70 14.1002 164.257 1 29 998 14.0078 164.068 TD 25 1003 13 281
1997124N03171 1997 28 WP MM KELLY 1997-05-10 06:00:00 TS 14.1615 163.346 35 998 tokyo main 2323 2298 OOOO__________ jtwc_wp WP041997 14.1000 163.000 30 -1 14.2000 163.500 3 35 998 0 9 70 70 0 14.2000 163.500 1 29 998 14.1000 163.500 TD 25 1004 14 284
1997124N03171 1997 28 WP MM KELLY 1997-05-10 09:00:00 TS 14.3565 162.697 main 2307 2282 PPP___________ WP041997 14.2998 162.365 27 -1 14.3848 162.863 3 999 0 9 14.3848 162.863 1 29 999 TD 13 288
1997124N03171 1997 28 WP MM KELLY 1997-05-10 12:00:00 TS 14.5600 162.060 1000 tokyo main 2292 2263 OOO___________ jtwc_wp WP041997 14.5000 161.700 25 -1 14.6000 162.300 2 1000 0 0 0 14.6000 162.300 1 29 1000 13 288
1997124N03171 1997 28 WP MM KELLY 1997-05-10 15:00:00 TS 14.7563 161.401 main 2273 2247 PPP___________ WP041997 14.7073 161.015 22 -1 14.8052 161.788 2 1001 0 0 14.8052 161.788 1 26 1001 14 285
1997124N03171 1997 28 WP MM KELLY 1997-05-10 18:00:00 TS 14.9333 160.633 1002 tokyo main 2242 2207 OOO___________ jtwc_wp WP041997 14.9000 160.300 20 -1 15.0000 161.300 2 1002 0 0 0 15.0000 161.300 1 23 1002 18 280
1997124N03171 1997 28 WP MM KELLY 1997-05-10 21:00:00 NR 15.0573 159.565 main 2212 2185 P_____________ WP041997 15.0573 159.565 17 -1 2 0 0 1 18 279
1997124N03171 1997 28 WP MM KELLY 1997-05-11 00:00:00 NR 15.2000 158.800 main 2185 2166 O_____________ jtwc_wp WP041997 15.2000 158.800 15 -1 15 281
1997124N03171 1997 28 WP MM KELLY 1997-05-11 03:00:00 NR 15.3498 158.007 main 2162 2153 P_____________ WP041997 15.3498 158.007 15 -1 16 281
1997124N03171 1997 28 WP MM KELLY 1997-05-11 06:00:00 NR 15.5000 157.200 main 2153 2137 O_____________ jtwc_wp WP041997 15.5000 157.200 15 -1 16 281
1997124N03171 1997 28 WP MM KELLY 1997-05-11 09:00:00 NR 15.6505 156.398 main 2148 2133 P_____________ WP041997 15.6505 156.398 15 -1 16 281
1997124N03171 1997 28 WP MM KELLY 1997-05-11 12:00:00 NR 15.8000 155.600 main 2136 O_____________ jtwc_wp WP041997 15.8000 155.600 15 -1 16 281

デジタル台風データ・検索

IBTrACS Databaseについて

本データベースは、米国NOAAが公開する1842年以降の世界の熱帯低気圧のベストトラックデータアーカイブInternational Best Track Archive for Climate Stewardship (IBTrACS)を、ウェブで閲覧しやすい形式に変換したものです。

最終更新日:2021-12-06